sensor_id;sensor_type;location;lat;lon;timestamp;pressure;altitude;pressure_sealevel;temperature;humidity
74466;BME280;62916;50.044;15.938;2024-02-28T00:00:13;98963.63;;;19.92;52.82
74466;BME280;62916;50.044;15.938;2024-02-28T00:02:43;98964.30;;;19.90;52.90
74466;BME280;62916;50.044;15.938;2024-02-28T00:05:14;98969.29;;;19.88;52.85
74466;BME280;62916;50.044;15.938;2024-02-28T00:07:45;98971.39;;;19.87;52.97
74466;BME280;62916;50.044;15.938;2024-02-28T00:10:17;98967.11;;;19.85;52.98
74466;BME280;62916;50.044;15.938;2024-02-28T00:12:47;98970.52;;;19.84;52.97
74466;BME280;62916;50.044;15.938;2024-02-28T00:15:19;98975.97;;;19.82;52.85
74466;BME280;62916;50.044;15.938;2024-02-28T00:17:53;98975.45;;;19.80;53.00
74466;BME280;62916;50.044;15.938;2024-02-28T00:20:25;98979.15;;;19.78;52.91
74466;BME280;62916;50.044;15.938;2024-02-28T00:22:57;98977.54;;;19.77;52.94
74466;BME280;62916;50.044;15.938;2024-02-28T00:25:28;98976.63;;;19.75;53.03
74466;BME280;62916;50.044;15.938;2024-02-28T00:27:59;98981.53;;;19.74;52.93
74466;BME280;62916;50.044;15.938;2024-02-28T00:30:30;98977.41;;;19.72;53.12
74466;BME280;62916;50.044;15.938;2024-02-28T00:33:02;98975.88;;;19.70;53.12
74466;BME280;62916;50.044;15.938;2024-02-28T00:35:34;98980.29;;;19.69;53.07
74466;BME280;62916;50.044;15.938;2024-02-28T00:38:08;98981.16;;;19.67;53.04
74466;BME280;62916;50.044;15.938;2024-02-28T00:40:39;98980.16;;;19.65;53.13
74466;BME280;62916;50.044;15.938;2024-02-28T00:43:09;98982.41;;;19.63;53.08
74466;BME280;62916;50.044;15.938;2024-02-28T00:45:40;98976.59;;;19.62;53.16
74466;BME280;62916;50.044;15.938;2024-02-28T00:48:11;98981.85;;;19.60;53.18
74466;BME280;62916;50.044;15.938;2024-02-28T00:50:42;98981.71;;;19.58;53.21
74466;BME280;62916;50.044;15.938;2024-02-28T00:53:13;98984.95;;;19.57;53.33
74466;BME280;62916;50.044;15.938;2024-02-28T00:55:43;98985.42;;;19.56;53.22
74466;BME280;62916;50.044;15.938;2024-02-28T00:58:15;98979.88;;;19.53;53.32
74466;BME280;62916;50.044;15.938;2024-02-28T01:00:46;98983.45;;;19.52;53.25
74466;BME280;62916;50.044;15.938;2024-02-28T01:03:17;98982.41;;;19.51;53.33
74466;BME280;62916;50.044;15.938;2024-02-28T01:05:50;98986.94;;;19.48;53.33
74466;BME280;62916;50.044;15.938;2024-02-28T01:08:21;98989.48;;;19.47;53.36
74466;BME280;62916;50.044;15.938;2024-02-28T01:10:52;98990.60;;;19.45;53.38
74466;BME280;62916;50.044;15.938;2024-02-28T01:13:23;98990.65;;;19.43;53.40
74466;BME280;62916;50.044;15.938;2024-02-28T01:15:53;98992.05;;;19.41;53.41
74466;BME280;62916;50.044;15.938;2024-02-28T01:18:24;98992.36;;;19.39;53.50
74466;BME280;62916;50.044;15.938;2024-02-28T01:20:55;98995.62;;;19.37;53.47
74466;BME280;62916;50.044;15.938;2024-02-28T01:23:26;98991.70;;;19.36;53.48
74466;BME280;62916;50.044;15.938;2024-02-28T01:25:57;98991.35;;;19.34;53.58
74466;BME280;62916;50.044;15.938;2024-02-28T01:28:28;98991.27;;;19.33;53.52
74466;BME280;62916;50.044;15.938;2024-02-28T01:30:59;98988.38;;;19.32;53.68
74466;BME280;62916;50.044;15.938;2024-02-28T01:33:30;98986.68;;;19.30;53.57
74466;BME280;62916;50.044;15.938;2024-02-28T01:36:02;98985.34;;;19.29;53.64
74466;BME280;62916;50.044;15.938;2024-02-28T01:38:33;98986.79;;;19.27;53.67
74466;BME280;62916;50.044;15.938;2024-02-28T01:41:04;98984.16;;;19.27;53.63
74466;BME280;62916;50.044;15.938;2024-02-28T01:43:35;98987.11;;;19.25;53.71
74466;BME280;62916;50.044;15.938;2024-02-28T01:46:19;98986.80;;;19.24;53.78
74466;BME280;62916;50.044;15.938;2024-02-28T01:48:51;98985.27;;;19.23;53.84
74466;BME280;62916;50.044;15.938;2024-02-28T01:51:23;98988.42;;;19.22;53.89
74466;BME280;62916;50.044;15.938;2024-02-28T01:53:55;98985.75;;;19.22;53.79
74466;BME280;62916;50.044;15.938;2024-02-28T01:56:27;98986.22;;;19.20;53.87
74466;BME280;62916;50.044;15.938;2024-02-28T01:58:58;98983.34;;;19.18;53.87
74466;BME280;62916;50.044;15.938;2024-02-28T02:01:29;98985.48;;;19.18;53.90
74466;BME280;62916;50.044;15.938;2024-02-28T02:04:00;98982.48;;;19.16;54.03
74466;BME280;62916;50.044;15.938;2024-02-28T02:06:31;98983.20;;;19.14;53.98
74466;BME280;62916;50.044;15.938;2024-02-28T02:09:04;98985.08;;;19.13;54.06
74466;BME280;62916;50.044;15.938;2024-02-28T02:11:35;98990.36;;;19.11;54.05
74466;BME280;62916;50.044;15.938;2024-02-28T02:14:06;98990.48;;;19.10;54.13
74466;BME280;62916;50.044;15.938;2024-02-28T02:16:37;98989.09;;;19.10;54.08
74466;BME280;62916;50.044;15.938;2024-02-28T02:19:10;98982.59;;;19.08;54.13
74466;BME280;62916;50.044;15.938;2024-02-28T02:21:43;98973.58;;;19.07;54.14
74466;BME280;62916;50.044;15.938;2024-02-28T02:24:18;98973.47;;;19.06;54.32
74466;BME280;62916;50.044;15.938;2024-02-28T02:26:49;98971.05;;;19.06;54.35
74466;BME280;62916;50.044;15.938;2024-02-28T02:29:21;98969.15;;;19.06;54.36
74466;BME280;62916;50.044;15.938;2024-02-28T02:31:52;98969.67;;;19.05;54.32
74466;BME280;62916;50.044;15.938;2024-02-28T02:34:23;98971.28;;;19.04;54.35
74466;BME280;62916;50.044;15.938;2024-02-28T02:36:53;98973.72;;;19.03;54.34
74466;BME280;62916;50.044;15.938;2024-02-28T02:39:24;98979.04;;;19.01;54.44
74466;BME280;62916;50.044;15.938;2024-02-28T02:41:55;98984.08;;;19.00;54.41
74466;BME280;62916;50.044;15.938;2024-02-28T02:44:26;98983.59;;;18.99;54.37
74466;BME280;62916;50.044;15.938;2024-02-28T02:46:57;98986.66;;;18.97;54.44
74466;BME280;62916;50.044;15.938;2024-02-28T02:49:28;98986.33;;;18.97;54.54
74466;BME280;62916;50.044;15.938;2024-02-28T02:51:59;98987.80;;;18.96;54.60
74466;BME280;62916;50.044;15.938;2024-02-28T02:54:30;98990.02;;;18.95;54.51
74466;BME280;62916;50.044;15.938;2024-02-28T02:57:01;98990.11;;;18.95;54.56
74466;BME280;62916;50.044;15.938;2024-02-28T02:59:33;98989.88;;;18.93;54.63
74466;BME280;62916;50.044;15.938;2024-02-28T03:02:04;98994.17;;;18.94;54.72
74466;BME280;62916;50.044;15.938;2024-02-28T03:04:35;98998.35;;;18.94;54.65
74466;BME280;62916;50.044;15.938;2024-02-28T03:07:06;98998.70;;;18.93;54.73
74466;BME280;62916;50.044;15.938;2024-02-28T03:09:36;99002.11;;;18.92;54.68
74466;BME280;62916;50.044;15.938;2024-02-28T03:12:08;99006.46;;;18.91;54.61
74466;BME280;62916;50.044;15.938;2024-02-28T03:14:40;99007.22;;;18.90;54.61
74466;BME280;62916;50.044;15.938;2024-02-28T03:17:11;99006.89;;;18.89;54.75
74466;BME280;62916;50.044;15.938;2024-02-28T03:19:43;99010.76;;;18.87;54.72
74466;BME280;62916;50.044;15.938;2024-02-28T03:22:14;99013.74;;;18.87;54.76
74466;BME280;62916;50.044;15.938;2024-02-28T03:24:45;99015.05;;;18.86;54.70
74466;BME280;62916;50.044;15.938;2024-02-28T03:27:16;99021.99;;;18.84;54.78
74466;BME280;62916;50.044;15.938;2024-02-28T03:29:47;99025.17;;;18.83;54.86
74466;BME280;62916;50.044;15.938;2024-02-28T03:32:19;99030.02;;;18.82;54.85
74466;BME280;62916;50.044;15.938;2024-02-28T03:34:50;99038.44;;;18.81;54.91
74466;BME280;62916;50.044;15.938;2024-02-28T03:37:21;99038.45;;;18.80;54.97
74466;BME280;62916;50.044;15.938;2024-02-28T03:39:51;99039.26;;;18.78;54.90
74466;BME280;62916;50.044;15.938;2024-02-28T03:42:22;99048.08;;;18.78;54.86
74466;BME280;62916;50.044;15.938;2024-02-28T03:44:54;99050.73;;;18.77;54.98
74466;BME280;62916;50.044;15.938;2024-02-28T03:47:24;99049.30;;;18.76;54.96
74466;BME280;62916;50.044;15.938;2024-02-28T03:49:56;99055.48;;;18.75;55.04
74466;BME280;62916;50.044;15.938;2024-02-28T03:52:28;99056.07;;;18.74;55.12
74466;BME280;62916;50.044;15.938;2024-02-28T03:55:00;99055.86;;;18.73;55.09
74466;BME280;62916;50.044;15.938;2024-02-28T03:57:30;99058.58;;;18.72;55.12
74466;BME280;62916;50.044;15.938;2024-02-28T04:00:04;99059.83;;;18.72;55.07
74466;BME280;62916;50.044;15.938;2024-02-28T04:02:35;99060.64;;;18.71;55.30
74466;BME280;62916;50.044;15.938;2024-02-28T04:05:07;99059.30;;;18.71;55.33
74466;BME280;62916;50.044;15.938;2024-02-28T04:07:38;99067.11;;;18.71;55.22
74466;BME280;62916;50.044;15.938;2024-02-28T04:10:10;99068.73;;;18.70;55.27
74466;BME280;62916;50.044;15.938;2024-02-28T04:12:44;99067.45;;;18.70;55.25
74466;BME280;62916;50.044;15.938;2024-02-28T04:15:15;99071.18;;;18.69;55.37
74466;BME280;62916;50.044;15.938;2024-02-28T04:17:45;99071.69;;;18.69;55.35
74466;BME280;62916;50.044;15.938;2024-02-28T04:20:16;99074.50;;;18.69;55.33
74466;BME280;62916;50.044;15.938;2024-02-28T04:22:47;99079.16;;;18.69;55.34
74466;BME280;62916;50.044;15.938;2024-02-28T04:25:18;99079.52;;;18.68;55.32
74466;BME280;62916;50.044;15.938;2024-02-28T04:27:49;99084.18;;;18.67;55.40
74466;BME280;62916;50.044;15.938;2024-02-28T04:30:20;99084.04;;;18.66;55.42
74466;BME280;62916;50.044;15.938;2024-02-28T04:32:51;99088.30;;;18.66;55.39
74466;BME280;62916;50.044;15.938;2024-02-28T04:35:22;99088.20;;;18.66;55.47
74466;BME280;62916;50.044;15.938;2024-02-28T04:37:53;99086.02;;;18.66;55.45
74466;BME280;62916;50.044;15.938;2024-02-28T04:40:23;99083.55;;;18.65;55.42
74466;BME280;62916;50.044;15.938;2024-02-28T04:42:54;99082.61;;;18.64;55.46
74466;BME280;62916;50.044;15.938;2024-02-28T04:45:25;99086.66;;;18.63;55.56
74466;BME280;62916;50.044;15.938;2024-02-28T04:47:56;99084.32;;;18.63;55.55
74466;BME280;62916;50.044;15.938;2024-02-28T04:50:27;99084.48;;;18.63;55.61
74466;BME280;62916;50.044;15.938;2024-02-28T04:52:58;99082.87;;;18.63;55.65
74466;BME280;62916;50.044;15.938;2024-02-28T04:55:29;99082.23;;;18.63;55.74
74466;BME280;62916;50.044;15.938;2024-02-28T04:58:00;99082.63;;;18.63;55.65
74466;BME280;62916;50.044;15.938;2024-02-28T05:00:31;99084.98;;;18.63;55.74
74466;BME280;62916;50.044;15.938;2024-02-28T05:03:02;99086.60;;;18.64;55.78
74466;BME280;62916;50.044;15.938;2024-02-28T05:05:33;99091.13;;;18.63;55.84
74466;BME280;62916;50.044;15.938;2024-02-28T05:08:05;99091.10;;;18.64;55.93
74466;BME280;62916;50.044;15.938;2024-02-28T05:10:36;99091.85;;;18.66;55.86
74466;BME280;62916;50.044;15.938;2024-02-28T05:13:08;99095.48;;;18.67;55.84
74466;BME280;62916;50.044;15.938;2024-02-28T05:15:39;99097.10;;;18.68;55.72
74466;BME280;62916;50.044;15.938;2024-02-28T05:18:10;99096.72;;;18.67;55.43
74466;BME280;62916;50.044;15.938;2024-02-28T05:20:41;99095.73;;;18.66;55.30
74466;BME280;62916;50.044;15.938;2024-02-28T05:23:12;99098.21;;;18.68;55.44
74466;BME280;62916;50.044;15.938;2024-02-28T05:25:43;99099.66;;;18.70;55.43
74466;BME280;62916;50.044;15.938;2024-02-28T05:28:14;99106.05;;;18.70;55.48
74466;BME280;62916;50.044;15.938;2024-02-28T05:30:45;99109.83;;;18.70;55.46
74466;BME280;62916;50.044;15.938;2024-02-28T05:33:19;99109.98;;;18.70;55.39
74466;BME280;62916;50.044;15.938;2024-02-28T05:35:50;99113.86;;;18.70;55.34
74466;BME280;62916;50.044;15.938;2024-02-28T05:38:21;99116.40;;;18.70;55.22
74466;BME280;62916;50.044;15.938;2024-02-28T05:40:51;99117.93;;;18.69;55.18
74466;BME280;62916;50.044;15.938;2024-02-28T05:43:22;99119.80;;;18.68;55.12
74466;BME280;62916;50.044;15.938;2024-02-28T05:45:53;99121.80;;;18.66;55.37
74466;BME280;62916;50.044;15.938;2024-02-28T05:48:24;99130.27;;;18.66;55.09
74466;BME280;62916;50.044;15.938;2024-02-28T05:50:55;99137.15;;;18.65;55.07
74466;BME280;62916;50.044;15.938;2024-02-28T05:53:26;99139.36;;;18.64;54.97
74466;BME280;62916;50.044;15.938;2024-02-28T05:55:57;99145.89;;;18.63;54.90
74466;BME280;62916;50.044;15.938;2024-02-28T05:58:28;99151.70;;;18.62;54.98
74466;BME280;62916;50.044;15.938;2024-02-28T06:00:59;99157.73;;;18.61;54.89
74466;BME280;62916;50.044;15.938;2024-02-28T06:03:30;99159.83;;;18.60;54.90
74466;BME280;62916;50.044;15.938;2024-02-28T06:06:01;99166.48;;;18.59;54.88
74466;BME280;62916;50.044;15.938;2024-02-28T06:08:37;99170.30;;;18.57;54.92
74466;BME280;62916;50.044;15.938;2024-02-28T06:11:08;99173.34;;;18.57;54.89
74466;BME280;62916;50.044;15.938;2024-02-28T06:13:41;99175.59;;;18.56;54.84
74466;BME280;62916;50.044;15.938;2024-02-28T06:16:16;99178.08;;;18.55;54.80
74466;BME280;62916;50.044;15.938;2024-02-28T06:18:48;99182.02;;;18.54;54.84
74466;BME280;62916;50.044;15.938;2024-02-28T06:21:21;99184.48;;;18.52;54.86
74466;BME280;62916;50.044;15.938;2024-02-28T06:23:52;99185.39;;;18.51;54.83
74466;BME280;62916;50.044;15.938;2024-02-28T06:26:23;99183.73;;;18.50;54.79
74466;BME280;62916;50.044;15.938;2024-02-28T06:28:54;99189.36;;;18.49;54.72
74466;BME280;62916;50.044;15.938;2024-02-28T06:31:30;99193.59;;;18.48;54.69
74466;BME280;62916;50.044;15.938;2024-02-28T06:34:02;99194.95;;;18.46;54.70
74466;BME280;62916;50.044;15.938;2024-02-28T06:36:33;99193.96;;;18.45;54.70
74466;BME280;62916;50.044;15.938;2024-02-28T06:39:04;99196.79;;;18.44;54.77
74466;BME280;62916;50.044;15.938;2024-02-28T06:41:35;99199.52;;;18.42;54.70
74466;BME280;62916;50.044;15.938;2024-02-28T06:44:06;99206.73;;;18.41;54.67
74466;BME280;62916;50.044;15.938;2024-02-28T06:46:38;99207.70;;;18.39;54.76
74466;BME280;62916;50.044;15.938;2024-02-28T06:49:08;99210.23;;;18.39;54.71
74466;BME280;62916;50.044;15.938;2024-02-28T06:51:39;99208.00;;;18.38;54.74
74466;BME280;62916;50.044;15.938;2024-02-28T06:54:10;99215.38;;;18.37;54.70
74466;BME280;62916;50.044;15.938;2024-02-28T06:56:41;99215.28;;;18.35;54.64
74466;BME280;62916;50.044;15.938;2024-02-28T06:59:12;99217.70;;;18.34;54.75
74466;BME280;62916;50.044;15.938;2024-02-28T07:01:43;99220.09;;;18.33;54.72
74466;BME280;62916;50.044;15.938;2024-02-28T07:04:14;99221.90;;;18.32;54.70
74466;BME280;62916;50.044;15.938;2024-02-28T07:06:45;99220.67;;;18.29;54.65
74466;BME280;62916;50.044;15.938;2024-02-28T07:09:16;99225.04;;;18.30;54.67
74466;BME280;62916;50.044;15.938;2024-02-28T07:11:46;99230.66;;;18.29;54.69
74466;BME280;62916;50.044;15.938;2024-02-28T07:14:17;99233.21;;;18.27;54.63
74466;BME280;62916;50.044;15.938;2024-02-28T07:16:48;99236.37;;;18.25;54.75
74466;BME280;62916;50.044;15.938;2024-02-28T07:19:21;99242.15;;;18.26;54.56
74466;BME280;62916;50.044;15.938;2024-02-28T07:21:52;99251.42;;;18.25;54.69
74466;BME280;62916;50.044;15.938;2024-02-28T07:24:23;99252.10;;;18.24;54.62
74466;BME280;62916;50.044;15.938;2024-02-28T07:26:54;99255.92;;;18.24;54.78
74466;BME280;62916;50.044;15.938;2024-02-28T07:29:26;99257.17;;;18.23;54.62
74466;BME280;62916;50.044;15.938;2024-02-28T07:31:57;99258.55;;;18.22;54.67
74466;BME280;62916;50.044;15.938;2024-02-28T07:34:28;99262.14;;;18.22;54.65
74466;BME280;62916;50.044;15.938;2024-02-28T07:36:59;99262.00;;;18.21;54.58
74466;BME280;62916;50.044;15.938;2024-02-28T07:39:30;99265.88;;;18.21;54.69
74466;BME280;62916;50.044;15.938;2024-02-28T07:42:01;99263.98;;;18.20;54.58
74466;BME280;62916;50.044;15.938;2024-02-28T07:44:32;99268.02;;;18.20;54.68
74466;BME280;62916;50.044;15.938;2024-02-28T07:47:03;99271.57;;;18.19;54.59
74466;BME280;62916;50.044;15.938;2024-02-28T07:49:36;99275.66;;;18.19;54.68
74466;BME280;62916;50.044;15.938;2024-02-28T07:52:07;99271.61;;;18.20;54.79
74466;BME280;62916;50.044;15.938;2024-02-28T07:54:38;99270.27;;;18.20;54.59
74466;BME280;62916;50.044;15.938;2024-02-28T07:57:12;99269.83;;;18.19;54.61
74466;BME280;62916;50.044;15.938;2024-02-28T07:59:45;99265.85;;;18.19;54.52
74466;BME280;62916;50.044;15.938;2024-02-28T08:02:16;99263.38;;;18.18;54.56
74466;BME280;62916;50.044;15.938;2024-02-28T08:04:49;99259.63;;;18.17;54.56
74466;BME280;62916;50.044;15.938;2024-02-28T08:07:20;99265.30;;;18.16;54.59
74466;BME280;62916;50.044;15.938;2024-02-28T08:09:51;99265.88;;;18.16;54.48
74466;BME280;62916;50.044;15.938;2024-02-28T08:12:22;99267.73;;;18.15;54.46
74466;BME280;62916;50.044;15.938;2024-02-28T08:14:53;99262.64;;;18.14;54.49
74466;BME280;62916;50.044;15.938;2024-02-28T08:17:23;99270.39;;;18.13;54.50
74466;BME280;62916;50.044;15.938;2024-02-28T08:19:54;99271.20;;;18.12;54.44
74466;BME280;62916;50.044;15.938;2024-02-28T08:22:25;99268.92;;;18.10;54.46
74466;BME280;62916;50.044;15.938;2024-02-28T08:24:56;99272.13;;;18.10;54.36
74466;BME280;62916;50.044;15.938;2024-02-28T08:27:27;99271.75;;;18.09;54.47
74466;BME280;62916;50.044;15.938;2024-02-28T08:29:59;99276.80;;;18.10;54.56
74466;BME280;62916;50.044;15.938;2024-02-28T08:32:30;99274.80;;;18.08;54.45
74466;BME280;62916;50.044;15.938;2024-02-28T08:35:01;99277.51;;;18.07;54.44
74466;BME280;62916;50.044;15.938;2024-02-28T08:37:32;99278.56;;;18.06;54.50
74466;BME280;62916;50.044;15.938;2024-02-28T08:40:03;99283.46;;;18.06;54.39
74466;BME280;62916;50.044;15.938;2024-02-28T08:42:34;99288.52;;;18.05;54.51
74466;BME280;62916;50.044;15.938;2024-02-28T08:45:07;99290.66;;;18.05;54.50
74466;BME280;62916;50.044;15.938;2024-02-28T08:47:38;99295.78;;;18.03;54.47
74466;BME280;62916;50.044;15.938;2024-02-28T08:50:11;99299.38;;;18.03;54.41
74466;BME280;62916;50.044;15.938;2024-02-28T08:52:41;99297.98;;;18.02;54.47
74466;BME280;62916;50.044;15.938;2024-02-28T08:55:13;99301.90;;;18.02;54.40
74466;BME280;62916;50.044;15.938;2024-02-28T08:57:48;99303.20;;;18.02;54.43
74466;BME280;62916;50.044;15.938;2024-02-28T09:00:20;99303.48;;;18.02;54.30
74466;BME280;62916;50.044;15.938;2024-02-28T09:02:51;99304.57;;;18.01;54.42
74466;BME280;62916;50.044;15.938;2024-02-28T09:05:22;99311.40;;;18.02;54.47
74466;BME280;62916;50.044;15.938;2024-02-28T09:07:53;99313.88;;;18.01;54.53
74466;BME280;62916;50.044;15.938;2024-02-28T09:10:24;99316.58;;;18.01;54.38
74466;BME280;62916;50.044;15.938;2024-02-28T09:12:55;99316.31;;;18.00;54.42
74466;BME280;62916;50.044;15.938;2024-02-28T09:15:26;99319.23;;;18.00;54.37
74466;BME280;62916;50.044;15.938;2024-02-28T09:17:57;99323.34;;;18.00;54.52
74466;BME280;62916;50.044;15.938;2024-02-28T09:20:29;99326.42;;;18.00;54.42
74466;BME280;62916;50.044;15.938;2024-02-28T09:22:59;99329.18;;;18.00;54.39
74466;BME280;62916;50.044;15.938;2024-02-28T09:25:30;99326.27;;;17.99;54.31
74466;BME280;62916;50.044;15.938;2024-02-28T09:28:02;99326.10;;;17.99;54.39
74466;BME280;62916;50.044;15.938;2024-02-28T09:30:33;99332.15;;;18.00;54.38
74466;BME280;62916;50.044;15.938;2024-02-28T09:33:16;99329.73;;;18.01;54.43
74466;BME280;62916;50.044;15.938;2024-02-28T09:35:49;99331.71;;;18.02;54.42
74466;BME280;62916;50.044;15.938;2024-02-28T09:38:20;99337.45;;;18.01;54.41
74466;BME280;62916;50.044;15.938;2024-02-28T09:40:51;99337.36;;;18.01;54.25
74466;BME280;62916;50.044;15.938;2024-02-28T09:43:28;99341.41;;;18.00;54.36
74466;BME280;62916;50.044;15.938;2024-02-28T09:46:03;99344.83;;;18.00;54.41
74466;BME280;62916;50.044;15.938;2024-02-28T09:48:34;99345.91;;;17.99;54.12
74466;BME280;62916;50.044;15.938;2024-02-28T09:51:07;99350.36;;;17.99;54.19
74466;BME280;62916;50.044;15.938;2024-02-28T09:53:38;99356.81;;;17.98;54.26
74466;BME280;62916;50.044;15.938;2024-02-28T09:56:10;99363.21;;;17.98;54.20
74466;BME280;62916;50.044;15.938;2024-02-28T09:58:42;99369.16;;;17.98;54.25
74466;BME280;62916;50.044;15.938;2024-02-28T10:01:16;99367.59;;;17.98;54.30
74466;BME280;62916;50.044;15.938;2024-02-28T10:03:52;99372.48;;;17.98;54.18
74466;BME280;62916;50.044;15.938;2024-02-28T10:06:24;99383.82;;;17.97;54.14
74466;BME280;62916;50.044;15.938;2024-02-28T10:08:55;99374.55;;;17.96;54.21
74466;BME280;62916;50.044;15.938;2024-02-28T10:11:25;99374.45;;;17.96;54.22
74466;BME280;62916;50.044;15.938;2024-02-28T10:13:56;99374.63;;;17.95;54.19
74466;BME280;62916;50.044;15.938;2024-02-28T10:16:28;99379.23;;;17.94;54.11
74466;BME280;62916;50.044;15.938;2024-02-28T10:18:59;99379.35;;;17.94;54.12
74466;BME280;62916;50.044;15.938;2024-02-28T10:21:31;99377.84;;;17.93;54.20
74466;BME280;62916;50.044;15.938;2024-02-28T10:24:04;99379.80;;;17.92;54.09
74466;BME280;62916;50.044;15.938;2024-02-28T10:26:43;99380.73;;;17.91;54.18
74466;BME280;62916;50.044;15.938;2024-02-28T10:29:14;99385.38;;;17.92;54.11
74466;BME280;62916;50.044;15.938;2024-02-28T10:31:44;99388.52;;;17.92;54.18
74466;BME280;62916;50.044;15.938;2024-02-28T10:34:17;99389.34;;;17.92;54.20
74466;BME280;62916;50.044;15.938;2024-02-28T10:36:49;99392.04;;;17.93;54.17
74466;BME280;62916;50.044;15.938;2024-02-28T10:39:21;99389.41;;;17.92;54.19
74466;BME280;62916;50.044;15.938;2024-02-28T10:41:54;99382.64;;;17.92;54.15
74466;BME280;62916;50.044;15.938;2024-02-28T10:44:26;99386.84;;;17.91;54.14
74466;BME280;62916;50.044;15.938;2024-02-28T10:46:58;99386.69;;;17.91;54.18
74466;BME280;62916;50.044;15.938;2024-02-28T10:49:30;99392.92;;;17.91;54.25
74466;BME280;62916;50.044;15.938;2024-02-28T10:52:04;99397.13;;;17.90;54.06
74466;BME280;62916;50.044;15.938;2024-02-28T10:54:37;99399.17;;;17.89;54.15
74466;BME280;62916;50.044;15.938;2024-02-28T10:57:10;99406.58;;;17.90;54.22
74466;BME280;62916;50.044;15.938;2024-02-28T10:59:44;99403.98;;;17.89;54.19
74466;BME280;62916;50.044;15.938;2024-02-28T11:02:16;99406.13;;;17.89;54.16
74466;BME280;62916;50.044;15.938;2024-02-28T11:04:47;99409.73;;;17.89;54.12
74466;BME280;62916;50.044;15.938;2024-02-28T11:07:22;99412.54;;;17.88;54.11
74466;BME280;62916;50.044;15.938;2024-02-28T11:09:56;99414.05;;;17.88;54.24
74466;BME280;62916;50.044;15.938;2024-02-28T11:12:28;99418.03;;;17.88;54.11
74466;BME280;62916;50.044;15.938;2024-02-28T11:15:01;99420.79;;;17.88;54.15
74466;BME280;62916;50.044;15.938;2024-02-28T11:17:33;99418.66;;;17.86;54.12
74466;BME280;62916;50.044;15.938;2024-02-28T11:20:14;99420.90;;;17.87;54.20
74466;BME280;62916;50.044;15.938;2024-02-28T11:22:46;99420.73;;;17.87;54.20
74466;BME280;62916;50.044;15.938;2024-02-28T11:25:17;99424.39;;;17.87;54.07
74466;BME280;62916;50.044;15.938;2024-02-28T11:27:49;99426.52;;;17.86;54.17
74466;BME280;62916;50.044;15.938;2024-02-28T11:30:21;99423.44;;;17.87;54.18
74466;BME280;62916;50.044;15.938;2024-02-28T11:32:54;99430.45;;;17.86;54.23
74466;BME280;62916;50.044;15.938;2024-02-28T11:35:34;99428.37;;;17.86;54.06
74466;BME280;62916;50.044;15.938;2024-02-28T11:38:07;99429.11;;;17.85;54.04
74466;BME280;62916;50.044;15.938;2024-02-28T11:40:39;99434.61;;;17.85;54.08
74466;BME280;62916;50.044;15.938;2024-02-28T11:43:19;99437.76;;;17.84;54.01
74466;BME280;62916;50.044;15.938;2024-02-28T11:45:51;99439.11;;;17.84;54.15
74466;BME280;62916;50.044;15.938;2024-02-28T11:48:22;99439.63;;;17.83;54.18
74466;BME280;62916;50.044;15.938;2024-02-28T11:50:54;99444.50;;;17.83;54.09
74466;BME280;62916;50.044;15.938;2024-02-28T11:53:27;99444.34;;;17.82;54.13
74466;BME280;62916;50.044;15.938;2024-02-28T11:55:58;99448.66;;;17.82;54.12
74466;BME280;62916;50.044;15.938;2024-02-28T11:58:30;99446.31;;;17.81;54.14
74466;BME280;62916;50.044;15.938;2024-02-28T12:01:00;99447.03;;;17.82;54.11
74466;BME280;62916;50.044;15.938;2024-02-28T12:03:31;99447.99;;;17.82;54.11
74466;BME280;62916;50.044;15.938;2024-02-28T12:06:03;99448.23;;;17.81;54.04
74466;BME280;62916;50.044;15.938;2024-02-28T12:08:35;99443.30;;;17.81;54.06
74466;BME280;62916;50.044;15.938;2024-02-28T12:11:09;99435.96;;;17.80;54.02
74466;BME280;62916;50.044;15.938;2024-02-28T12:13:40;99435.91;;;17.79;54.05
74466;BME280;62916;50.044;15.938;2024-02-28T12:16:13;99437.65;;;17.79;53.97
74466;BME280;62916;50.044;15.938;2024-02-28T12:18:46;99439.40;;;17.78;54.15
74466;BME280;62916;50.044;15.938;2024-02-28T12:21:17;99438.22;;;17.78;53.95
74466;BME280;62916;50.044;15.938;2024-02-28T12:23:49;99437.83;;;17.77;54.10
74466;BME280;62916;50.044;15.938;2024-02-28T12:26:20;99438.05;;;17.77;54.13
74466;BME280;62916;50.044;15.938;2024-02-28T12:28:51;99438.90;;;17.76;54.13
74466;BME280;62916;50.044;15.938;2024-02-28T12:31:22;99437.44;;;17.76;54.10
74466;BME280;62916;50.044;15.938;2024-02-28T12:33:53;99441.09;;;17.76;54.09
74466;BME280;62916;50.044;15.938;2024-02-28T12:36:24;99440.02;;;17.76;54.09
74466;BME280;62916;50.044;15.938;2024-02-28T12:38:56;99441.72;;;17.74;54.09
74466;BME280;62916;50.044;15.938;2024-02-28T12:41:28;99441.79;;;17.74;54.09
74466;BME280;62916;50.044;15.938;2024-02-28T12:43:59;99444.70;;;17.73;54.06
74466;BME280;62916;50.044;15.938;2024-02-28T12:46:32;99444.52;;;17.71;54.08
74466;BME280;62916;50.044;15.938;2024-02-28T12:49:04;99446.16;;;17.73;54.17
74466;BME280;62916;50.044;15.938;2024-02-28T12:51:39;99451.00;;;17.72;54.04
74466;BME280;62916;50.044;15.938;2024-02-28T12:54:11;99451.21;;;17.72;54.09
74466;BME280;62916;50.044;15.938;2024-02-28T12:56:43;99451.58;;;17.71;54.13
74466;BME280;62916;50.044;15.938;2024-02-28T12:59:15;99452.65;;;17.70;54.07
74466;BME280;62916;50.044;15.938;2024-02-28T13:01:46;99452.82;;;17.70;54.14
74466;BME280;62916;50.044;15.938;2024-02-28T13:04:18;99454.38;;;17.71;54.17
74466;BME280;62916;50.044;15.938;2024-02-28T13:06:49;99454.94;;;17.71;54.13
74466;BME280;62916;50.044;15.938;2024-02-28T13:09:21;99456.42;;;17.69;54.12
74466;BME280;62916;50.044;15.938;2024-02-28T13:11:53;99459.17;;;17.70;54.13